Alma, Colorado
Current Conditions -  °F | °C
As of 5:37 PM on Friday 31 Oct 2014 (Local Time) from KCCU Reporting Station
Clear Clear  
Wind Chill: 39°   Ceiling: Unl
Heat Index: 45°   Visibility: NA
Dew Point:   Wind: 10mph
Humidity: 21%   Direction: 250°WSW
Pressure: 30.41"   Gusts: 20mph
Location:  39.28°N, 106.06°W
Report Text: KCCU 312337Z AUTO 25009G17KT CLR 07/M14 A3041 RMK AO2 PWINO
Loading
Personal Weather Stations






























Interactive Weather Map
Tropical Storm Tracking
New forecast layout! Learn more

10-Day Weather Forecast

Advertisements
Track Severe Weather on mobile